Clarksdale Fletcher Field Air, MS

6:14 PM CST on December 07, 2019 (GMT -0600)
Fletcher

Weather History for KCKM - November, 2019

Change the Weather History Date:

Thursday, November 14, 2019

  Actual Average (KUOX) Record (KUOX)
Temperature  
Mean Temperature 40 °F -  
Max Temperature 51 °F 62 °F 86 °F (1955)
Min Temperature 30 °F 36 °F 19 °F (1940)
Degree Days  
Heating Degree Days 24    
Moisture  
Dew Point 30 °F    
Average Humidity 69    
Maximum Humidity 100    
Minimum Humidity 33    
Precipitation  
Precipitation 0.00 in - - ()
Sea Level Pressure  
Sea Level Pressure 30.29 in    
Wind  
Wind Speed 1 mph ()    
Max Wind Speed 8 mph    
Max Gust Speed -    
Visibility 10.0 miles    
Events      
Averages and records for this station are not official NWS values.
T = Trace of Precipitation, MM = Missing Value Source: Averaged Metar Reports

Daily Weather History Graph

Daily Weather History Graph

Search for Another Location

Airport or City:

Astronomy

Nov. 14, 2019 Rise Set
Actual Time 6:33 AM CST 4:58 PM CST
Civil Twilight 6:07 AM CST 5:25 PM CST
Nautical Twilight 5:37 AM CST 5:55 PM CST
Astronomical Twilight 5:07 AM CST 6:25 PM CST
Moon 6:47 PM CST (11/14) 8:26 AM CST (11/14)
Length of Visible Light 11h 17m
Length of Day
10h 24m
Waning Gibbous, 95% of the Moon is Illuminated
Nov 14
Waning Gibbous
Nov 19
Last Quarter
Nov 26
New
Dec 4
First Quarter
Dec 11
Full

Hourly Weather History & Observations

Time (CST) Temp. Windchill Dew Point Humidity Pressure Visibility Wind Dir Wind Speed Gust Speed Precip Events Conditions
12:35 AM 33.8 °F - 30.2 °F 87% 30.25 in 10.0 mi Calm Calm - N/A   Unknown
12:55 AM 35.6 °F - 30.2 °F 81% 30.25 in 10.0 mi Calm Calm - N/A   Unknown
1:15 AM 35.6 °F - 28.4 °F 75% 30.26 in 10.0 mi Calm Calm - N/A   Unknown
1:35 AM 35.6 °F - 30.2 °F 81% 30.27 in 10.0 mi Calm Calm - N/A   Unknown
1:55 AM 33.8 °F - 32.0 °F 93% 30.26 in 10.0 mi Calm Calm - N/A   Unknown
2:15 AM 33.8 °F - 30.2 °F 87% 30.26 in 10.0 mi Calm Calm - N/A   Unknown
2:35 AM 33.8 °F - 30.2 °F 87% 30.26 in 10.0 mi Calm Calm - N/A   Unknown
2:55 AM 33.8 °F - 30.2 °F 87% 30.26 in 10.0 mi Calm Calm - N/A   Unknown
3:15 AM 33.8 °F - 30.2 °F 87% 30.26 in 10.0 mi Calm Calm - N/A   Unknown
3:55 AM 32.0 °F - 28.4 °F 87% 30.26 in 10.0 mi Calm Calm - N/A   Unknown
4:35 AM 30.2 °F - 30.2 °F 100% 30.25 in 10.0 mi Calm Calm - N/A   Unknown
5:15 AM 30.2 °F - 30.2 °F 100% 30.26 in 10.0 mi Calm Calm - N/A   Unknown
5:55 AM 32.0 °F 28.7 °F 30.2 °F 93% 30.26 in 10.0 mi SE 3.5 mph - N/A   Unknown
6:15 AM 30.2 °F - 30.2 °F 100% 30.27 in 10.0 mi Calm Calm - N/A   Unknown
6:35 AM 32.0 °F - 32.0 °F 100% 30.27 in 10.0 mi Calm Calm - N/A   Unknown
6:55 AM 32.0 °F - 32.0 °F 100% 30.28 in 10.0 mi Calm Calm - N/A   Unknown
7:15 AM 33.8 °F - 33.8 °F 100% 30.28 in 10.0 mi Calm Calm - N/A   Unknown
7:35 AM 33.8 °F - 33.8 °F 100% 30.30 in 10.0 mi Calm Calm - N/A   Unknown
7:55 AM 35.6 °F - 32.0 °F 87% 30.30 in 10.0 mi Calm Calm - N/A   Unknown
8:15 AM 35.6 °F - 32.0 °F 87% 30.30 in 10.0 mi Calm Calm - N/A   Unknown
8:35 AM 37.4 °F - 32.0 °F 81% 30.30 in 10.0 mi Calm Calm - N/A   Unknown
8:55 AM 37.4 °F - 32.0 °F 81% 30.32 in 10.0 mi Calm Calm - N/A   Unknown
9:15 AM 39.2 °F - 32.0 °F 75% 30.32 in 10.0 mi Calm Calm - N/A   Unknown
9:35 AM 41.0 °F - 32.0 °F 70% 30.31 in 10.0 mi Calm Calm - N/A   Unknown
9:55 AM 42.8 °F - 33.8 °F 70% 30.31 in 10.0 mi Calm Calm - N/A   Unknown
10:15 AM 44.6 °F - 30.2 °F 57% 30.31 in 10.0 mi Calm Calm - N/A   Unknown
10:35 AM 44.6 °F - 30.2 °F 57% 30.32 in 10.0 mi Calm Calm - N/A   Unknown
10:55 AM 46.4 °F - 28.4 °F 50% 30.32 in 10.0 mi Calm Calm - N/A   Unknown
11:15 AM 46.4 °F - 28.4 °F 50% 30.31 in 10.0 mi Calm Calm - N/A   Unknown
11:35 AM 48.2 °F - 28.4 °F 46% 30.30 in 10.0 mi WSW 4.6 mph - N/A   Unknown
11:55 AM 50.0 °F - 26.6 °F 40% 30.30 in 10.0 mi Calm Calm - N/A   Unknown
12:15 PM 50.0 °F - 30.2 °F 47% 30.30 in 10.0 mi NW 6.9 mph - N/A   Unknown
12:35 PM 50.0 °F - 26.6 °F 40% 30.30 in 10.0 mi Calm Calm - N/A   Unknown
12:55 PM 50.0 °F - 24.8 °F 37% 30.29 in - Variable 4.6 mph - N/A   Unknown
1:15 PM 50.0 °F - 23.0 °F 35% 30.28 in 10.0 mi Calm Calm - N/A   Unknown
1:35 PM 50.0 °F - 24.8 °F 37% 30.27 in 10.0 mi Calm Calm - N/A   Unknown
2:15 PM 50.0 °F - 23.0 °F 35% 30.27 in 10.0 mi Calm Calm - N/A   Unknown
2:35 PM 51.8 °F - 24.8 °F 35% 30.27 in 10.0 mi NW 5.8 mph - N/A   Unknown
2:55 PM 51.8 °F - 26.6 °F 38% 30.27 in 10.0 mi Calm Calm - N/A   Unknown
3:15 PM 51.8 °F - 23.0 °F 33% 30.26 in 10.0 mi Calm Calm - N/A   Unknown
3:35 PM 51.8 °F - 24.8 °F 35% 30.27 in 10.0 mi Calm Calm - N/A   Unknown
3:55 PM 51.8 °F - 24.8 °F 35% 30.28 in 10.0 mi Calm Calm - N/A   Unknown
4:15 PM 51.8 °F - 26.6 °F 38% 30.27 in 10.0 mi North 4.6 mph - N/A   Unknown
4:35 PM 50.0 °F - 32.0 °F 50% 30.27 in 10.0 mi North 8.1 mph - N/A   Unknown
4:55 PM 46.4 °F 42.4 °F 32.0 °F 57% 30.28 in 10.0 mi North 8.1 mph - N/A   Unknown
5:15 PM 44.6 °F 40.7 °F 32.0 °F 61% 30.28 in 10.0 mi North 6.9 mph - N/A   Unknown
5:35 PM 42.8 °F - 32.0 °F 66% 30.29 in 10.0 mi Calm Calm - N/A   Unknown
5:55 PM 42.8 °F - 32.0 °F 66% 30.30 in 10.0 mi Calm Calm - N/A   Unknown
6:15 PM 42.8 °F - 32.0 °F 66% 30.31 in 10.0 mi Calm Calm - N/A   Unknown
7:15 PM 39.2 °F - 32.0 °F 75% 30.33 in 10.0 mi Calm Calm - N/A   Unknown
7:35 PM 39.2 °F 35.9 °F 30.2 °F 70% 30.32 in 10.0 mi NNW 4.6 mph - N/A   Unknown
7:55 PM 37.4 °F - 28.4 °F 70% 30.33 in 10.0 mi Calm Calm - N/A   Unknown
8:15 PM 39.2 °F - 28.4 °F 65% 30.33 in 10.0 mi Calm Calm - N/A   Unknown
8:55 PM 37.4 °F - 30.2 °F 75% 30.34 in 10.0 mi Calm Calm - N/A   Unknown
9:15 PM 37.4 °F - 30.2 °F 75% 30.34 in 8.0 mi Calm Calm - N/A   Unknown
10:15 PM 33.8 °F - 30.2 °F 87% 30.34 in 10.0 mi Calm Calm - N/A   Unknown
10:35 PM 35.6 °F 31.7 °F 30.2 °F 81% 30.34 in 10.0 mi NW 4.6 mph - N/A   Unknown
10:55 PM 35.6 °F 31.7 °F 30.2 °F 81% 30.35 in 10.0 mi NW 4.6 mph - N/A   Unknown
11:15 PM 35.6 °F 30.7 °F 28.4 °F 75% 30.35 in 10.0 mi NW 5.8 mph - N/A   Unknown
11:35 PM 35.6 °F 32.8 °F 30.2 °F 81% 30.36 in 10.0 mi NW 3.5 mph - N/A   Unknown
11:55 PM 35.6 °F - 30.2 °F 81% 30.36 in 10.0 mi Calm Calm - N/A   Unknown